Time;durP1;ratioP1;P1;durP2;ratioP2;P2;SDS_P1;SDS_P2;PMS_P1;PMS_P2;Temp;Humidity;BMP_temperature;BMP_pressure;BME280_temperature;BME280_humidity;BME280_pressure;Samples;Min_cycle;Max_cycle;Signal;HPM_P1;HPM_P2
2022/08/17 00:01:26;;;;;;;18.43;12.03;;;;;;;20.60;100.00;100355.34;1664537;85;21031;-91
2022/08/17 00:03:54;;;;;;;13.72;10.82;;;;;;;20.56;100.00;100358.87;1616064;87;21092;-91
2022/08/17 00:06:26;;;;;;;13.65;11.18;;;;;;;20.54;100.00;100358.75;1648966;87;21545;-92
2022/08/17 00:09:01;;;;;;;15.63;10.80;;;;;;;20.52;100.00;100358.11;1648905;86;21161;-91
2022/08/17 00:11:37;;;;;;;13.93;11.28;;;;;;;20.49;100.00;100360.11;1649547;86;21014;-90
2022/08/17 00:14:14;;;;;;;16.23;11.50;;;;;;;20.51;100.00;100360.43;1648285;87;21025;-91
2022/08/17 00:16:50;;;;;;;14.47;10.75;;;;;;;20.52;100.00;100355.46;1649090;86;21606;-90
2022/08/17 00:19:21;;;;;;;15.08;11.40;;;;;;;20.52;100.00;100349.66;1651678;86;21038;-92
2022/08/17 00:21:59;;;;;;;13.03;11.57;;;;;;;20.51;100.00;100349.85;1651559;86;21167;-91
2022/08/17 00:24:31;;;;;;;14.47;11.95;;;;;;;20.48;100.00;100351.86;1647985;86;21421;-90
2022/08/17 00:26:59;;;;;;;14.30;11.88;;;;;;;20.45;100.00;100351.41;1651612;86;21075;-90
2022/08/17 00:29:27;;;;;;;16.87;11.43;;;;;;;20.41;100.00;100352.29;1662512;85;21742;-90
2022/08/17 00:31:54;;;;;;;15.72;11.83;;;;;;;20.41;100.00;100352.81;1651612;85;21080;-92
2022/08/17 00:34:25;;;;;;;16.37;11.57;;;;;;;20.39;100.00;100347.69;1637853;86;21192;-92
2022/08/17 00:36:53;;;;;;;14.05;11.28;;;;;;;20.39;100.00;100345.04;1651718;86;20993;-92
2022/08/17 00:39:25;;;;;;;14.28;12.00;;;;;;;20.40;100.00;100345.36;1651533;85;20986;-91
2022/08/17 00:41:59;;;;;;;13.95;11.40;;;;;;;20.42;100.00;100347.32;1651382;85;20986;-91
2022/08/17 00:44:27;;;;;;;14.47;12.18;;;;;;;20.45;100.00;100348.28;1651537;85;21100;-91
2022/08/17 00:46:56;;;;;;;19.07;11.90;;;;;;;20.48;100.00;100345.25;1638088;86;21208;-91
2022/08/17 00:49:25;;;;;;;12.58;11.28;;;;;;;20.51;100.00;100341.92;1651466;86;21101;-92
2022/08/17 00:51:58;;;;;;;12.80;11.15;;;;;;;20.52;100.00;100338.27;1651512;86;21056;-93
2022/08/17 00:54:33;;;;;;;15.70;11.40;;;;;;;20.53;100.00;100338.08;1637817;86;21093;-92
2022/08/17 00:57:08;;;;;;;13.90;11.25;;;;;;;20.53;100.00;100339.39;1653042;86;21046;-92
2022/08/17 00:59:51;;;;;;;14.07;12.28;;;;;;;20.55;100.00;100341.87;1657325;86;21161;-92
2022/08/17 01:02:22;;;;;;;14.55;12.43;;;;;;;20.57;100.00;100345.96;1670594;85;21018;-91
2022/08/17 01:04:51;;;;;;;21.50;11.90;;;;;;;20.56;100.00;100346.13;1680009;85;21053;-92
2022/08/17 01:07:22;;;;;;;12.97;11.63;;;;;;;20.53;100.00;100346.52;1667593;85;21010;-91
2022/08/17 01:09:55;;;;;;;15.47;12.00;;;;;;;20.47;100.00;100342.28;1688028;84;21026;-92
2022/08/17 01:12:27;;;;;;;15.08;11.83;;;;;;;20.43;100.00;100345.00;1676231;85;21153;-92
2022/08/17 01:14:56;;;;;;;14.73;11.70;;;;;;;20.39;100.00;100346.36;1675605;85;21006;-93
2022/08/17 01:17:26;;;;;;;18.12;11.68;;;;;;;20.35;100.00;100346.44;1676262;85;21911;-93
2022/08/17 01:19:59;;;;;;;13.72;11.73;;;;;;;20.34;100.00;100351.41;1671650;85;21019;-92
2022/08/17 01:22:31;;;;;;;17.95;11.18;;;;;;;20.31;100.00;100354.44;1671982;85;21042;-91
2022/08/17 01:25:03;;;;;;;14.20;11.28;;;;;;;20.27;100.00;100345.22;1672927;85;21798;-92
2022/08/17 01:27:35;;;;;;;12.93;11.65;;;;;;;20.21;100.00;100336.20;1684367;85;21594;-92
2022/08/17 01:30:08;;;;;;;15.60;11.65;;;;;;;20.17;100.00;100333.11;1673019;85;21014;-92
2022/08/17 01:32:39;;;;;;;15.32;12.05;;;;;;;20.11;100.00;100332.54;1672149;85;21612;-92
2022/08/17 01:35:10;;;;;;;17.83;12.60;;;;;;;20.05;100.00;100335.09;1673296;85;21010;-91
2022/08/17 01:37:42;;;;;;;14.28;11.80;;;;;;;19.99;100.00;100336.67;1661473;86;21167;-92
2022/08/17 01:40:27;;;;;;;17.98;11.88;;;;;;;19.92;100.00;100331.77;1673273;85;21579;-93
2022/08/17 01:43:02;;;;;;;17.55;11.83;;;;;;;19.85;100.00;100332.52;1669981;85;21085;-92
2022/08/17 01:45:46;;;;;;;15.40;13.35;;;;;;;19.79;100.00;100326.62;1669947;85;21050;-93
2022/08/17 01:48:19;;;;;;;16.45;13.45;;;;;;;19.76;100.00;100322.20;1670774;85;21070;-92
2022/08/17 01:50:50;;;;;;;13.10;11.80;;;;;;;19.69;100.00;100320.30;1672472;85;21084;-91
2022/08/17 01:53:27;;;;;;;16.35;12.65;;;;;;;19.63;100.00;100324.97;1686136;84;21058;-91
2022/08/17 01:56:03;;;;;;;15.32;12.28;;;;;;;19.61;100.00;100318.23;1670331;85;21066;-93
2022/08/17 01:58:37;;;;;;;18.20;12.95;;;;;;;19.58;100.00;100315.47;1671313;85;20990;-91
2022/08/17 02:01:07;;;;;;;13.55;12.05;;;;;;;19.56;100.00;100317.46;1672880;85;21058;-91
2022/08/17 02:03:37;;;;;;;14.58;12.33;;;;;;;19.53;100.00;100318.65;1673230;85;21207;-90
2022/08/17 02:06:06;;;;;;;14.90;12.13;;;;;;;19.51;100.00;100319.32;1672670;85;21595;-92
2022/08/17 02:08:34;;;;;;;22.98;13.03;;;;;;;19.48;100.00;100318.38;1673020;85;21073;-92
2022/08/17 02:11:13;;;;;;;14.70;13.10;;;;;;;19.45;100.00;100314.77;1664250;86;20975;-91
2022/08/17 02:13:47;;;;;;;17.30;13.08;;;;;;;19.42;100.00;100315.64;1664164;84;20939;-92
2022/08/17 02:16:16;;;;;;;13.75;12.18;;;;;;;19.41;100.00;100310.88;1664302;85;21819;-91
2022/08/17 02:18:47;;;;;;;17.77;12.25;;;;;;;19.42;100.00;100307.23;1664085;86;21054;-91
2022/08/17 02:21:15;;;;;;;20.13;12.67;;;;;;;19.44;100.00;100306.53;1668693;84;21062;-91
2022/08/17 02:23:48;;;;;;;13.55;12.18;;;;;;;19.43;100.00;100304.89;1692195;84;21032;-91
2022/08/17 02:26:19;;;;;;;14.33;12.82;;;;;;;19.42;100.00;100305.08;1637281;87;21058;-91
2022/08/17 02:28:47;;;;;;;13.90;12.18;;;;;;;19.41;100.00;100312.19;1678035;84;21193;-91
2022/08/17 02:31:14;;;;;;;19.80;12.33;;;;;;;19.39;100.00;100304.43;1692169;84;21106;-92
2022/08/17 02:33:43;;;;;;;17.55;12.40;;;;;;;19.39;100.00;100304.43;1692494;84;21573;-92
2022/08/17 02:36:12;;;;;;;16.65;11.63;;;;;;;19.39;100.00;100300.98;1692254;84;21161;-91
2022/08/17 02:38:43;;;;;;;13.28;11.83;;;;;;;19.39;100.00;100295.19;1692221;84;21075;-91
2022/08/17 02:41:12;;;;;;;14.78;11.85;;;;;;;19.41;100.00;100294.19;1692277;84;21139;-91
2022/08/17 02:43:44;;;;;;;19.92;12.45;;;;;;;19.43;100.00;100294.33;1692102;84;20999;-91
2022/08/17 02:46:15;;;;;;;16.50;12.20;;;;;;;19.45;100.00;100298.13;1692550;84;21024;-90
2022/08/17 02:48:46;;;;;;;15.60;11.93;;;;;;;19.47;100.00;100298.77;1692339;84;20956;-91
2022/08/17 02:51:13;;;;;;;17.40;12.13;;;;;;;19.49;100.00;100298.91;1692225;84;21058;-91
2022/08/17 02:53:45;;;;;;;15.45;11.30;;;;;;;19.49;100.00;100297.58;1692198;84;21214;-92
2022/08/17 02:56:17;;;;;;;13.70;11.50;;;;;;;19.52;100.00;100303.80;1692406;84;21043;-91
2022/08/17 02:58:49;;;;;;;;;;;;;;;19.53;100.00;100308.59;1694832;84;21035;-91
2022/08/17 03:01:19;;;;;;;13.32;11.30;;;;;;;19.53;100.00;100307.28;1692173;84;20162;-91
2022/08/17 03:03:47;;;;;;;14.98;12.43;;;;;;;19.52;100.00;100305.64;1692506;84;21049;-90
2022/08/17 03:06:15;;;;;;;20.00;12.07;;;;;;;19.50;100.00;100301.03;1692134;84;21136;-93
2022/08/17 03:08:42;;;;;;;15.80;12.47;;;;;;;19.46;100.00;100303.73;1692144;84;21639;-93
2022/08/17 03:11:10;;;;;;;16.02;12.47;;;;;;;19.45;100.00;100302.09;1706397;84;21030;-93
2022/08/17 03:13:38;;;;;;;13.62;12.05;;;;;;;19.45;100.00;100312.13;1707633;84;21320;-92
2022/08/17 03:16:07;;;;;;;16.73;12.07;;;;;;;19.48;100.00;100304.34;1671476;85;21034;-92
2022/08/17 03:18:37;;;;;;;13.60;12.20;;;;;;;19.53;100.00;100307.28;1673509;85;21179;-92
2022/08/17 03:21:08;;;;;;;16.45;11.97;;;;;;;19.57;100.00;100301.94;1682838;85;21504;-91
2022/08/17 03:23:42;;;;;;;18.75;12.25;;;;;;;19.60;100.00;100304.71;1680333;85;21049;-91
2022/08/17 03:26:10;;;;;;;15.53;12.13;;;;;;;19.64;100.00;100309.96;1652405;85;21097;-92
2022/08/17 03:28:39;;;;;;;15.18;12.43;;;;;;;19.66;100.00;100307.45;1661148;84;21062;-91
2022/08/17 03:31:07;;;;;;;13.60;12.05;;;;;;;19.71;100.00;100308.23;1688311;84;21159;-92
2022/08/17 03:33:34;;;;;;;13.48;11.63;;;;;;;19.72;100.00;100313.83;1690802;84;21136;-92
2022/08/17 03:36:01;;;;;;;17.20;12.18;;;;;;;19.75;100.00;100312.64;1690831;84;21542;-92
2022/08/17 03:38:34;;;;;;;15.55;11.20;;;;;;;19.77;100.00;100310.64;1690791;84;21019;-92
2022/08/17 03:41:02;;;;;;;19.92;13.60;;;;;;;19.78;100.00;100314.41;1690892;84;21020;-92
2022/08/17 03:43:33;;;;;;;19.42;13.18;;;;;;;19.78;100.00;100321.02;1690438;84;21157;-91
2022/08/17 03:57:11;;;;;;;16.85;12.25;;;;;;;19.83;100.00;100316.51;1662929;86;21225;-92
2022/08/17 03:59:39;;;;;;;15.85;12.68;;;;;;;19.89;100.00;100313.16;1662446;84;20985;-92
2022/08/17 04:02:31;;;;;;;18.30;14.10;;;;;;;19.97;100.00;100311.73;1662925;86;21053;-91
2022/08/17 04:04:59;;;;;;;17.15;14.55;;;;;;;20.00;100.00;100313.18;1684441;83;21537;-91
2022/08/17 04:07:30;;;;;;;15.43;13.13;;;;;;;20.03;100.00;100310.18;1690472;84;21108;-92
2022/08/17 04:09:58;;;;;;;17.40;13.10;;;;;;;20.07;100.00;100308.79;1688301;84;21193;-94
2022/08/17 04:12:30;;;;;;;20.80;15.30;;;;;;;20.14;100.00;100315.00;1680893;85;21198;-92
2022/08/17 04:14:59;;;;;;;20.25;16.42;;;;;;;20.22;100.00;100318.53;1681008;85;32634;-93
2022/08/17 04:17:28;;;;;;;21.30;16.80;;;;;;;20.24;100.00;100316.50;1679971;85;21078;-93
2022/08/17 04:19:59;;;;;;;22.50;16.23;;;;;;;20.21;100.00;100315.57;1653431;85;21145;-93
2022/08/17 04:22:31;;;;;;;17.20;15.40;;;;;;;20.21;100.00;100314.25;1653461;85;21245;-93
2022/08/17 04:25:03;;;;;;;22.05;15.55;;;;;;;20.24;100.00;100308.57;1653304;86;21062;-93
2022/08/17 04:27:31;;;;;;;23.22;16.67;;;;;;;20.32;100.00;100312.42;1650398;86;21668;-94
2022/08/17 04:29:58;;;;;;;19.48;16.27;;;;;;;20.41;100.00;100317.91;1653816;85;21043;-93
2022/08/17 04:32:25;;;;;;;19.30;15.78;;;;;;;20.48;100.00;100321.44;1653447;86;21560;-93
2022/08/17 04:34:52;;;;;;;20.20;16.12;;;;;;;20.58;100.00;100318.52;1653547;85;21206;-90
2022/08/17 04:37:19;;;;;;;20.45;16.45;;;;;;;20.70;100.00;100314.86;1653586;86;21098;-91
2022/08/17 04:42:05;;;;;;;16.50;14.80;;;;;;;20.79;100.00;100311.08;1653083;85;21047;-89
2022/08/17 04:42:18;;;;;;;20.25;16.17;;;;;;;20.91;100.00;100311.38;1654495;86;21023;-91
2022/08/17 04:44:48;;;;;;;19.10;16.67;;;;;;;21.05;100.00;100314.16;1653728;86;21011;-90
2022/08/17 04:47:16;;;;;;;16.90;15.20;;;;;;;21.17;100.00;100311.80;1653659;86;21739;-90
2022/08/17 04:49:49;;;;;;;18.55;16.57;;;;;;;21.30;100.00;100313.20;1653175;86;21032;-90
2022/08/17 04:52:17;;;;;;;17.32;15.53;;;;;;;21.38;100.00;100303.79;1653646;86;21059;-90
2022/08/17 04:54:44;;;;;;;19.87;15.88;;;;;;;21.49;100.00;100305.59;1653563;86;21075;-89
2022/08/17 04:57:12;;;;;;;25.43;16.52;;;;;;;21.59;100.00;100307.42;1653338;86;21036;-91
2022/08/17 04:59:39;;;;;;;22.30;16.00;;;;;;;21.70;100.00;100307.37;1653961;86;21809;-90
2022/08/17 05:02:06;;;;;;;18.65;15.45;;;;;;;21.79;100.00;100309.33;1653873;86;21103;-90
2022/08/17 05:04:33;;;;;;;20.92;15.93;;;;;;;21.87;100.00;100311.81;1662151;85;21085;-90
2022/08/17 05:07:00;;;;;;;19.95;15.88;;;;;;;;;;1671546;84;21091;-90
2022/08/17 05:09:28;;;;;;;19.12;15.65;;;;;;;22.01;100.00;100306.07;1680500;85;21064;-90
2022/08/17 05:12:01;;;;;;;20.72;16.27;;;;;;;22.09;100.00;100301.08;1686445;84;21697;-91
2022/08/17 05:14:29;;;;;;;17.12;15.35;;;;;;;22.18;100.00;100298.56;1674823;84;21563;-91
2022/08/17 05:16:56;;;;;;;18.75;16.05;;;;;;;22.27;100.00;100294.72;1669642;85;21081;-90
2022/08/17 05:19:25;;;;;;;18.07;15.10;;;;;;;22.39;100.00;100293.66;1670280;85;21034;-92
2022/08/17 05:21:53;;;;;;;16.52;14.85;;;;;;;22.50;100.00;100293.56;1667857;85;21072;-94
2022/08/17 05:24:24;;;;;;;21.30;14.80;;;;;;;22.61;100.00;100295.63;1671411;84;21132;-87
2022/08/17 05:26:51;;;;;;;18.80;15.15;;;;;;;22.68;100.00;100287.66;1680769;85;20985;-88
2022/08/17 05:29:19;;;;;;;16.50;14.45;;;;;;;22.77;100.00;100286.96;1677905;83;21052;-88
2022/08/17 05:31:47;;;;;;;20.43;15.20;;;;;;;22.87;100.00;100282.56;1662919;84;21748;-87
2022/08/17 05:34:17;;;;;;;19.35;16.02;;;;;;;22.94;100.00;100284.20;1670283;84;20967;-87
2022/08/17 05:36:45;;;;;;;17.02;15.23;;;;;;;22.98;100.00;100280.10;1681460;85;21153;-87
2022/08/17 05:39:13;;;;;;;23.30;16.80;;;;;;;23.08;100.00;100276.22;1681350;84;21080;-88
2022/08/17 05:41:41;;;;;;;20.12;15.75;;;;;;;23.17;100.00;100274.98;1681246;85;21038;-88
2022/08/17 05:44:09;;;;;;;28.05;17.75;;;;;;;23.28;100.00;100276.22;1681330;84;21070;-87
2022/08/17 05:46:48;;;;;;;23.32;16.93;;;;;;;23.39;100.00;100275.59;1681367;85;21093;-86
2022/08/17 05:49:21;;;;;;;20.08;16.57;;;;;;;23.50;100.00;100271.96;1666477;86;21867;-86
2022/08/17 05:52:05;;;;;;;24.92;17.77;;;;;;;23.61;100.00;100272.13;1692868;84;21560;-89
2022/08/17 05:54:47;;;;;;;23.90;17.30;;;;;;;23.70;100.00;100263.92;1679495;85;20969;-87
2022/08/17 05:57:37;;;;;;;21.95;16.57;;;;;;;23.79;100.00;100260.00;1681235;85;22008;-86
2022/08/17 06:00:28;;;;;;;23.22;16.87;;;;;;;23.90;100.00;100265.98;1681739;85;21025;-87
2022/08/17 06:03:05;;;;;;;;;;;;;;;24.03;100.00;100269.62;1676171;83;21267;-87
2022/08/17 06:05:52;;;;;;;21.15;16.73;;;;;;;24.19;100.00;100277.09;1653894;86;20141;-93
2022/08/17 06:08:49;;;;;;;21.77;15.05;;;;;;;24.30;100.00;100269.48;1670861;85;21014;-93
2022/08/17 06:11:59;;;;;;;20.43;15.58;;;;;;;24.37;100.00;100272.91;1678677;85;21077;-93
2022/08/17 06:14:34;;;;;;;22.93;14.95;;;;;;;24.36;100.00;100275.27;1669622;84;21069;-93
2022/08/17 06:17:17;;;;;;;20.57;15.15;;;;;;;24.37;100.00;100282.22;1677123;85;21915;-94
2022/08/17 06:20:12;;;;;;;19.85;15.25;;;;;;;24.41;100.00;100283.41;1679248;85;21523;-93
2022/08/17 06:23:13;;;;;;;20.08;15.32;;;;;;;24.45;100.00;100279.80;1669357;85;21120;-92
2022/08/17 06:34:18;;;;;;;19.10;14.50;;;;;;;24.75;100.00;100273.36;1654107;86;21592;-93
2022/08/17 06:37:20;;;;;;;23.18;15.48;;;;;;;24.84;100.00;100277.87;1685399;84;20998;-94
2022/08/17 06:47:35;;;;;;;23.18;15.35;;;;;;;25.05;100.00;100272.67;1676166;85;21124;-94
2022/08/17 06:50:27;;;;;;;28.75;16.15;;;;;;;25.14;100.00;100268.70;1662018;85;21152;-95
2022/08/17 06:53:14;;;;;;;18.20;14.78;;;;;;;25.13;100.00;100271.05;1682108;84;21069;-95
2022/08/17 06:56:10;;;;;;;18.32;14.58;;;;;;;25.17;100.00;100274.92;1681678;84;21037;-95
2022/08/17 07:06:55;;;;;;;19.02;14.83;;;;;;;25.78;100.00;100279.07;1654230;86;21065;-96
2022/08/17 07:09:35;;;;;;;22.15;15.35;;;;;;;25.94;100.00;100270.98;1648991;86;21006;-96
2022/08/17 07:13:08;;;;;;;30.50;15.08;;;;;;;26.04;100.00;100269.09;1652320;86;21009;-95
2022/08/17 07:16:26;;;;;;;25.48;15.95;;;;;;;26.16;100.00;100268.37;1655142;86;21088;-96
2022/08/17 07:18:55;;;;;;;28.07;14.63;;;;;;;26.30;100.00;100266.59;1652831;86;21033;-96
2022/08/17 07:25:41;;;;;;;24.55;14.70;;;;;;;26.61;100.00;100263.86;1654187;86;21597;-96
2022/08/17 07:28:09;;;;;;;17.55;12.55;;;;;;;26.82;100.00;100255.02;1654155;86;21038;-96
2022/08/17 07:30:51;;;;;;;25.00;13.35;;;;;;;26.91;100.00;100254.95;1654316;86;21100;-96
2022/08/17 07:33:32;;;;;;;18.90;12.03;;;;;;;27.01;100.00;100251.69;1649391;86;21566;-96
2022/08/17 07:36:11;;;;;;;17.45;12.37;;;;;;;27.08;100.00;100250.54;1653735;86;21172;-96
2022/08/17 07:38:47;;;;;;;17.35;11.48;;;;;;;27.17;100.00;100248.31;1648639;86;21018;-95
2022/08/17 07:41:19;;;;;;;16.25;11.55;;;;;;;27.27;100.00;100249.58;1651806;86;21554;-95
2022/08/17 07:44:23;;;;;;;20.17;11.40;;;;;;;27.32;100.00;100241.69;1646455;87;21124;-96
2022/08/17 07:49:47;;;;;;;19.82;11.43;;;;;;;27.46;100.00;100238.23;1646238;87;21182;-96
2022/08/17 07:52:32;;;;;;;15.95;10.30;;;;;;;27.56;100.00;100237.09;1648891;87;21045;-96
2022/08/17 07:54:59;;;;;;;14.93;10.43;;;;;;;27.65;100.00;100230.84;1647479;87;21077;-96
2022/08/17 07:57:32;;;;;;;16.05;9.80;;;;;;;27.75;100.00;100229.70;1649133;87;21634;-96
2022/08/17 08:00:18;;;;;;;13.30;10.32;;;;;;;27.83;100.00;100227.18;1652582;86;21570;-95
2022/08/17 08:02:50;;;;;;;17.80;10.35;;;;;;;27.92;100.00;100228.42;1648920;87;21096;-96
2022/08/17 08:05:29;;;;;;;13.50;9.08;;;;;;;27.98;100.00;100227.45;1643021;87;21580;-96
2022/08/17 08:08:24;;;;;;;19.90;10.20;;;;;;;28.02;100.00;100221.09;1648785;87;21065;-96
2022/08/17 08:11:09;;;;;;;14.55;10.18;;;;;;;28.10;100.00;100224.73;1672208;85;21049;-96
2022/08/17 08:13:44;;;;;;;14.63;10.55;;;;;;;28.23;100.00;100216.09;1673706;85;21025;-96
2022/08/17 08:16:25;;;;;;;18.40;11.18;;;;;;;28.36;100.00;100218.98;1676114;85;21254;-96
2022/08/17 08:18:58;;;;;;;16.40;11.10;;;;;;;28.46;100.00;100212.45;1675966;85;21002;-96
2022/08/17 08:21:49;;;;;;;15.38;11.05;;;;;;;28.56;100.00;100204.59;1676281;85;21564;-96
2022/08/17 08:24:45;;;;;;;15.65;10.30;;;;;;;28.66;100.00;100203.91;1676781;84;21379;-96
2022/08/17 08:27:45;;;;;;;17.62;9.78;;;;;;;28.72;100.00;100207.52;1674029;85;21395;-96
2022/08/17 08:30:20;;;;;;;17.32;10.80;;;;;;;28.83;100.00;100204.44;1676500;85;21162;-96
2022/08/17 08:33:18;;;;;;;15.38;9.75;;;;;;;28.87;100.00;100203.70;1676286;85;21611;-96
2022/08/17 08:36:10;;;;;;;15.83;8.93;;;;;;;28.91;100.00;100206.16;1670597;85;22370;-96
2022/08/17 08:38:47;;;;;;;12.50;8.70;;;;;;;28.93;100.00;100205.90;1672899;85;21025;-96
2022/08/17 08:41:38;;;;;;;14.05;8.38;;;;;;;28.96;100.00;100199.52;1676400;85;21047;-96
2022/08/17 08:44:33;;;;;;;15.08;7.33;;;;;;;29.01;100.00;100201.99;1621589;85;21809;-96
2022/08/17 08:47:17;;;;;;;13.25;7.92;;;;;;;29.08;100.00;100199.42;1676230;85;21067;-96
2022/08/17 08:50:14;;;;;;;17.30;8.60;;;;;;;29.18;100.00;100197.39;1686158;85;21437;-96
2022/08/17 08:53:09;;;;;;;13.55;9.45;;;;;;;29.33;100.00;100200.00;1673613;85;21066;-96
2022/08/17 08:55:57;;;;;;;14.00;9.05;;;;;;;29.45;100.00;100203.34;1676734;85;21029;-96
2022/08/17 08:59:09;;;;;;;14.47;9.40;;;;;;;29.57;100.00;100196.48;1675232;85;21484;-96
2022/08/17 09:01:47;;;;;;;16.07;10.23;;;;;;;29.63;100.00;100191.99;1676682;85;21010;-96
2022/08/17 09:04:35;;;;;;;13.50;9.50;;;;;;;29.69;100.00;100190.97;1638713;85;21528;-96
2022/08/17 09:07:13;;;;;;;12.43;8.83;;;;;;;29.77;100.00;100193.20;1674170;85;20979;-96
2022/08/17 09:10:17;;;;;;;19.20;9.78;;;;;;;29.85;100.00;100191.94;1683571;85;21334;-96
2022/08/17 09:13:33;;;;;;;18.42;9.53;;;;;;;29.86;100.00;100197.05;1676549;85;22111;-96
2022/08/17 09:16:28;;;;;;;13.58;9.50;;;;;;;29.88;100.00;100188.22;1673421;85;21010;-95
2022/08/17 09:19:12;;;;;;;15.23;9.23;;;;;;;29.90;100.00;100186.09;1676154;85;21428;-96
2022/08/17 09:21:54;;;;;;;12.43;9.70;;;;;;;30.03;100.00;100184.06;1673496;85;21611;-96
2022/08/17 09:24:44;;;;;;;10.55;8.98;;;;;;;30.13;100.00;100181.48;1655071;85;21026;-94
2022/08/17 09:27:34;;;;;;;12.23;9.20;;;;;;;30.26;100.00;100183.44;1666625;85;21199;-95
2022/08/17 09:30:11;;;;;;;16.97;8.85;;;;;;;30.33;100.00;100184.02;1661889;85;21045;-96
2022/08/17 09:32:48;;;;;;;12.45;9.05;;;;;;;30.36;98.61;100185.68;1654304;85;21937;-96
2022/08/17 09:35:33;;;;;;;13.72;9.43;;;;;;;30.41;100.00;100176.03;1658881;85;21092;-96
2022/08/17 09:38:26;;;;;;;13.43;9.25;;;;;;;30.49;100.00;100172.31;1693311;84;21004;-96
2022/08/17 09:41:22;;;;;;;14.90;10.28;;;;;;;30.57;100.00;100176.98;1675034;84;21180;-96
2022/08/17 09:44:02;;;;;;;14.98;9.43;;;;;;;30.59;100.00;100170.79;1664401;85;21060;-96
2022/08/17 09:46:48;;;;;;;14.50;8.78;;;;;;;30.62;100.00;100179.13;1667932;85;21072;-96
2022/08/17 09:49:45;;;;;;;15.60;9.78;;;;;;;30.70;100.00;100175.16;1671988;84;21002;-96
2022/08/17 09:52:21;;;;;;;13.13;9.88;;;;;;;30.80;100.00;100177.08;1681783;84;21694;-96
2022/08/17 09:54:51;;;;;;;15.68;9.43;;;;;;;30.87;100.00;100176.86;1661384;85;22109;-96
2022/08/17 09:57:38;;;;;;;16.35;9.28;;;;;;;30.98;100.00;100179.33;1656286;85;21114;-96
2022/08/17 10:00:26;;;;;;;17.80;9.68;;;;;;;31.04;98.71;100184.70;1663638;85;21074;-96
2022/08/17 10:03:29;;;;;;;11.00;9.23;;;;;;;31.09;99.60;100188.27;1672402;85;21023;-96
2022/08/17 10:06:11;;;;;;;13.98;10.58;;;;;;;31.11;100.00;100187.99;1659820;85;21041;-96
2022/08/17 10:08:53;;;;;;;17.20;11.12;;;;;;;31.10;92.13;100185.02;1663818;85;21196;-96
2022/08/17 10:14:59;;;;;;;19.12;10.23;;;;;;;31.13;100.00;100177.79;1675193;84;21564;-96
2022/08/17 10:18:02;;;;;;;13.55;11.05;;;;;;;31.18;100.00;100178.34;1659414;85;21984;-96
2022/08/17 10:27:11;;;;;;;12.73;9.80;;;;;;;31.23;94.17;100181.04;1632308;87;21017;-96
2022/08/17 10:29:47;;;;;;;12.73;10.82;;;;;;;31.30;100.00;100189.14;1655666;85;21045;-96
2022/08/17 10:32:31;;;;;;;13.83;10.18;;;;;;;31.36;100.00;100185.94;1665892;85;21092;-96
2022/08/17 10:35:27;;;;;;;17.70;9.98;;;;;;;31.42;100.00;100191.59;1676946;84;21046;-96
2022/08/17 10:38:31;;;;;;;14.98;9.83;;;;;;;31.51;100.00;100188.39;1672822;85;21148;-96
2022/08/17 10:41:39;;;;;;;11.95;10.00;;;;;;;31.60;100.00;100190.83;1676339;85;21006;-96
2022/08/17 10:44:24;;;;;;;16.52;9.08;;;;;;;31.65;92.32;100184.10;1677101;85;21018;-96
2022/08/17 10:47:02;;;;;;;12.68;9.35;;;;;;;31.72;91.25;100184.67;1674502;85;21116;-94
2022/08/17 10:49:43;;;;;;;12.13;9.30;;;;;;;31.79;88.69;100183.08;1673904;85;21009;-96
2022/08/17 10:52:32;;;;;;;10.25;8.55;;;;;;;31.86;87.50;100183.62;1673031;85;22053;-96
2022/08/17 10:55:16;;;;;;;10.00;8.65;;;;;;;31.95;84.86;100182.53;1686856;84;21073;-96
2022/08/17 10:57:49;;;;;;;16.40;9.68;;;;;;;31.97;83.78;100187.66;1676529;85;21064;-96
2022/08/17 11:00:28;;;;;;;17.02;10.53;;;;;;;31.89;88.57;100184.41;1678795;85;21062;-96
2022/08/17 11:02:57;;;;;;;13.95;10.53;;;;;;;31.90;87.27;100179.30;1684325;85;20975;-96
2022/08/17 11:05:38;;;;;;;13.30;10.23;;;;;;;31.99;97.42;100178.23;1677222;85;21159;-95
2022/08/17 11:08:46;;;;;;;17.27;11.40;;;;;;;32.03;87.14;100179.30;1684742;85;21041;-96
2022/08/17 11:11:52;;;;;;;14.70;12.25;;;;;;;32.12;86.24;100180.92;1681597;85;21010;-96
2022/08/17 11:14:46;;;;;;;42.15;12.53;;;;;;;32.15;84.29;100176.88;1677773;85;21002;-96
2022/08/17 11:17:41;;;;;;;14.53;11.68;;;;;;;32.10;84.78;100168.27;1676978;85;21093;-96
2022/08/17 11:20:42;;;;;;;16.80;12.28;;;;;;;32.02;79.18;100170.95;1677209;85;21201;-96
2022/08/17 11:23:34;;;;;;;14.95;11.65;;;;;;;31.91;88.76;100163.97;1677441;85;20983;-96
2022/08/17 11:26:07;;;;;;;20.02;12.50;;;;;;;31.87;85.08;100165.05;1678009;85;22426;-96
2022/08/17 11:28:39;;;;;;;38.65;14.60;;;;;;;31.84;83.59;100166.92;1670729;85;21006;-96
2022/08/17 11:31:29;;;;;;;21.42;13.75;;;;;;;31.86;89.21;100151.32;1673689;85;21034;-96
2022/08/17 11:34:18;;;;;;;19.12;14.05;;;;;;;31.92;96.66;100157.52;1677131;85;21124;-96
2022/08/17 11:37:12;;;;;;;16.70;13.53;;;;;;;31.97;99.45;100153.47;1686171;85;21527;-95
2022/08/17 11:40:14;;;;;;;18.55;13.68;;;;;;;32.15;95.11;100152.09;1672474;85;21084;-96
2022/08/17 11:43:15;;;;;;;20.00;15.50;;;;;;;32.30;94.53;100149.95;1677943;85;20954;-96
2022/08/17 11:52:42;;;;;;;20.88;14.65;;;;;;;32.55;90.68;100138.30;1652289;85;20847;-95
2022/08/17 11:55:37;;;;;;;18.40;13.50;;;;;;;32.66;89.75;100145.80;1677082;85;21492;-95
2022/08/17 11:58:32;;;;;;;18.37;13.68;;;;;;;32.72;86.01;100143.38;1676304;83;21033;-96
2022/08/17 12:01:23;;;;;;;14.63;12.58;;;;;;;32.77;80.70;100133.13;1676221;85;21015;-96
2022/08/17 12:04:12;;;;;;;17.10;13.53;;;;;;;32.87;84.28;100133.64;1672326;85;22083;-96
2022/08/17 12:06:51;;;;;;;15.38;13.50;;;;;;;32.99;90.19;100132.76;1669815;85;21576;-96
2022/08/17 12:09:26;;;;;;;14.45;12.78;;;;;;;33.08;89.09;100128.13;1645075;87;21138;-96
2022/08/17 12:12:11;;;;;;;15.05;13.32;;;;;;;33.16;86.25;100122.98;1648399;86;21102;-96
2022/08/17 12:17:27;;;;;;;15.28;12.50;;;;;;;33.13;77.93;100118.69;1648710;87;21258;-96
2022/08/17 12:19:55;;;;;;;;;;;;;;;33.00;76.44;100121.45;1651673;86;20964;-96
2022/08/17 12:22:32;;;;;;;15.48;12.63;;;;;;;32.96;80.44;100114.98;1654529;86;20165;-96
2022/08/17 12:25:21;;;;;;;21.27;14.03;;;;;;;32.94;77.27;100110.41;1638067;87;21185;-95
2022/08/17 12:27:54;;;;;;;15.75;12.93;;;;;;;32.86;73.34;100113.16;1639171;85;21026;-96
2022/08/17 12:30:23;;;;;;;15.35;12.90;;;;;;;32.80;73.26;100110.23;1646777;85;21140;-96
2022/08/17 12:32:51;;;;;;;15.53;13.20;;;;;;;32.81;75.40;100108.59;1648528;87;20995;-96
2022/08/17 12:35:37;;;;;;;18.90;12.88;;;;;;;32.86;77.38;100108.56;1648468;86;21038;-96
2022/08/17 12:38:08;;;;;;;17.40;13.78;;;;;;;32.86;79.31;100110.46;1652581;85;21019;-96
2022/08/17 12:40:37;;;;;;;15.15;13.53;;;;;;;32.78;71.00;100109.69;1675809;85;21038;-95
2022/08/17 12:43:10;;;;;;;16.77;13.72;;;;;;;32.70;72.17;100107.81;1672415;85;21139;-95
2022/08/17 12:45:39;;;;;;;16.17;11.73;;;;;;;32.42;77.14;100107.91;1641467;87;21110;-95
2022/08/17 12:48:15;;;;;;;20.17;11.93;;;;;;;32.17;87.25;100112.80;1645262;86;21474;-95
2022/08/17 12:50:45;;;;;;;14.15;11.15;;;;;;;31.96;88.64;100119.55;1645856;86;21083;-96
2022/08/17 12:53:23;;;;;;;16.10;11.97;;;;;;;31.69;100.00;100113.89;1645901;87;21111;-94
2022/08/17 12:55:51;;;;;;;12.80;11.60;;;;;;;31.51;100.00;100102.31;1645657;87;21158;-96